»·PEaware :: FDX3884 KOAK-KSEA

FDX3884 :: KOAK-KSEA

FLIGHT INFORMATION

Flight Status: Arrived
Operator:
Federal Express
More flights by this operator :: More flights under this callsign
Pilot: Anonymous 12234 (12234)
Aircraft: BOEING 727-200
(B722)
More flights by this aircraft type
Origin: KOAK Metro Oakland Intl
United States
Destination: KSEA Seattle-Tacoma Intl
United States
More flights between these airports :: More routes between these airports
Route: OAK3 RBL J1 BTG OLM2
File this flight plan on PilotEdge
Remarks:
Altitude:
(Current/Filed)
34,000ft
Speed:
(Current/Filed)
452kts
Departed: 26-Feb-19 04:52 PM
Arrived: 26-Feb-19 06:25 PM
Distance/Time
Traveled:
584nm/1:33
Distance/Time
To Go:
Arrived

Flight Plot

Page will automatically refresh every two minutes.

Flight plan parsing failed; only flown route is shown


Map Options




Map Legend


Flown Route
Filed Route
Departure Airport
Arrival Airport
Navaid (VOR, NDB)
Fix

Horizontal Profiles

Position Reports

Time Latitude Longitude Heading Altitude Ground
Speed
26-Feb-19 16:05 37.717196 -122.220063 313 19ft 0kts
26-Feb-19 16:07 37.717196 -122.220063 313 19ft 0kts
26-Feb-19 16:08 37.717196 -122.220063 313 19ft 0kts
26-Feb-19 16:08 37.717196 -122.220063 313 19ft 0kts
26-Feb-19 16:09 37.717196 -122.220063 313 19ft 0kts
26-Feb-19 16:10 37.717196 -122.220063 313 19ft 0kts
26-Feb-19 16:12 37.717196 -122.220063 313 19ft 0kts
26-Feb-19 16:12 37.717196 -122.220063 313 19ft 0kts
26-Feb-19 16:13 37.717196 -122.220063 313 19ft 0kts
26-Feb-19 16:14 37.717196 -122.220063 313 19ft 0kts
26-Feb-19 16:15 37.717196 -122.220063 313 19ft 0kts
26-Feb-19 16:16 37.717196 -122.220063 313 19ft 0kts
26-Feb-19 16:17 37.717196 -122.220063 313 19ft 0kts
26-Feb-19 16:18 37.717196 -122.220063 313 19ft 0kts
26-Feb-19 16:19 37.717196 -122.220063 313 19ft 0kts
26-Feb-19 16:20 37.717196 -122.220063 313 19ft 0kts
26-Feb-19 16:21 37.717196 -122.220063 313 19ft 0kts
26-Feb-19 16:22 37.717196 -122.220063 313 19ft 0kts
26-Feb-19 16:23 37.717196 -122.220063 313 19ft 0kts
26-Feb-19 16:24 37.717196 -122.220063 313 19ft 0kts
26-Feb-19 16:25 37.717196 -122.220063 313 19ft 0kts
26-Feb-19 16:26 37.717196 -122.220063 313 19ft 0kts
26-Feb-19 16:27 37.717196 -122.220063 313 19ft 0kts
26-Feb-19 16:28 37.717196 -122.220063 313 19ft 0kts
26-Feb-19 16:29 37.717196 -122.220063 313 19ft 0kts
26-Feb-19 16:30 37.717196 -122.220063 313 19ft 0kts
26-Feb-19 16:31 37.717196 -122.220063 313 19ft 0kts
26-Feb-19 16:32 37.717196 -122.220063 313 19ft 0kts
26-Feb-19 16:33 37.717196 -122.220063 313 19ft 0kts
26-Feb-19 16:34 37.717196 -122.220063 313 19ft 0kts
26-Feb-19 16:35 37.717196 -122.220063 313 19ft 0kts
26-Feb-19 16:36 37.717196 -122.220063 313 19ft 0kts
26-Feb-19 16:37 37.716971 -122.219759 305 19ft 2kts
26-Feb-19 16:38 37.717034 -122.219228 228 19ft 0kts
26-Feb-19 16:39 37.717033 -122.219229 228 19ft 0kts
26-Feb-19 16:40 37.717033 -122.219229 228 19ft 0kts
26-Feb-19 16:41 37.717033 -122.219229 228 19ft 0kts
26-Feb-19 16:42 37.717033 -122.219229 228 19ft 0kts
26-Feb-19 16:43 37.716672 -122.219738 227 19ft 11kts
26-Feb-19 16:44 37.714581 -122.220076 222 19ft 11kts
26-Feb-19 16:45 37.711226 -122.224259 238 19ft 13kts
26-Feb-19 16:46 37.714112 -122.229422 310 19ft 23kts
26-Feb-19 16:47 37.718394 -122.236542 301 19ft 26kts
26-Feb-19 16:48 37.720525 -122.240737 232 19ft 0kts
26-Feb-19 16:49 37.720525 -122.240737 232 19ft 0kts
26-Feb-19 16:50 37.719034 -122.240579 131 19ft 24kts
26-Feb-19 16:51 37.696841 -122.205173 132 1661ft 164kts
26-Feb-19 16:52 37.663912 -122.147515 131 4298ft 233kts
26-Feb-19 16:53 37.613601 -122.122128 232 7691ft 239kts
26-Feb-19 16:54 37.624226 -122.209409 280 11053ft 276kts
26-Feb-19 16:55 37.680936 -122.275151 351 13511ft 352kts
26-Feb-19 16:56 37.781121 -122.280956 349 16138ft 372kts
26-Feb-19 16:57 37.886338 -122.285142 355 18708ft 387kts
26-Feb-19 16:58 37.993840 -122.282471 354 21628ft 374kts
26-Feb-19 16:59 38.097096 -122.280382 354 23272ft 389kts
26-Feb-19 17:00 38.201217 -122.278219 354 23828ft 427kts
26-Feb-19 17:01 38.321496 -122.275512 354 25518ft 433kts
26-Feb-19 17:02 38.443335 -122.272817 354 26844ft 444kts
26-Feb-19 17:03 38.568811 -122.270031 354 28065ft 453kts
26-Feb-19 17:04 38.696142 -122.267217 353 29161ft 462kts
26-Feb-19 17:05 38.824407 -122.264343 353 30379ft 463kts
26-Feb-19 17:06 38.949891 -122.261542 353 31512ft 463kts
26-Feb-19 17:07 39.077505 -122.258680 352 32568ft 461kts
26-Feb-19 17:08 39.198751 -122.256004 351 33412ft 460kts
26-Feb-19 17:09 39.321197 -122.253308 351 33895ft 466kts
26-Feb-19 17:10 39.448036 -122.250554 351 33900ft 484kts
26-Feb-19 17:11 39.575372 -122.247649 351 33891ft 489kts
26-Feb-19 17:12 39.699549 -122.244778 351 33879ft 487kts
26-Feb-19 17:13 39.829229 -122.241886 351 33881ft 489kts
26-Feb-19 17:14 39.962659 -122.238871 351 33883ft 492kts
26-Feb-19 17:15 40.093607 -122.235969 351 33885ft 494kts
26-Feb-19 17:16 40.214525 -122.265967 336 33865ft 472kts
26-Feb-19 17:17 40.341918 -122.303093 337 33838ft 475kts
26-Feb-19 17:18 40.468466 -122.338702 337 33839ft 477kts
26-Feb-19 17:19 40.596706 -122.374788 337 33840ft 479kts
26-Feb-19 17:20 40.724885 -122.410983 337 33837ft 481kts
26-Feb-19 17:21 40.854149 -122.447637 337 33834ft 483kts
26-Feb-19 17:22 40.986100 -122.485207 337 33835ft 486kts
26-Feb-19 17:23 41.110943 -122.520871 337 33830ft 489kts
26-Feb-19 17:24 41.236493 -122.556472 337 33822ft 489kts
26-Feb-19 17:25 41.369241 -122.594540 336 33791ft 490kts
26-Feb-19 17:26 41.500604 -122.633460 337 33753ft 493kts
26-Feb-19 17:27 41.631830 -122.671969 336 33769ft 494kts
26-Feb-19 17:28 41.767311 -122.710860 337 33771ft 498kts
26-Feb-19 17:29 41.903267 -122.749262 337 33772ft 500kts
26-Feb-19 17:30 42.039172 -122.787691 336 33779ft 501kts
26-Feb-19 17:31 42.168911 -122.824232 337 33768ft 502kts
26-Feb-19 17:32 42.304414 -122.862820 336 33770ft 501kts
26-Feb-19 17:33 42.440872 -122.902036 336 33774ft 501kts
26-Feb-19 17:34 42.582686 -122.907884 358 33780ft 527kts
26-Feb-19 17:35 42.728016 -122.889866 354 33799ft 524kts
26-Feb-19 17:36 42.873236 -122.875646 354 33806ft 525kts
26-Feb-19 17:37 43.019736 -122.861528 354 33811ft 526kts
26-Feb-19 17:38 43.137868 -122.850177 354 33824ft 527kts
26-Feb-19 17:39 43.283837 -122.836068 354 33860ft 522kts
26-Feb-19 17:40 43.427667 -122.822060 354 33862ft 516kts
26-Feb-19 17:41 43.570664 -122.808022 353 33866ft 512kts
26-Feb-19 17:42 43.712433 -122.794097 353 33870ft 508kts
26-Feb-19 17:43 43.845701 -122.780944 353 33896ft 507kts
26-Feb-19 17:44 43.986329 -122.766651 354 33901ft 510kts
26-Feb-19 17:45 44.125099 -122.750408 353 33889ft 511kts
26-Feb-19 17:46 44.266524 -122.736831 353 33888ft 511kts
26-Feb-19 17:47 44.408690 -122.723322 354 33912ft 511kts
26-Feb-19 17:48 44.550377 -122.709766 354 33941ft 511kts
26-Feb-19 17:49 44.692502 -122.696122 354 33944ft 512kts
26-Feb-19 17:50 44.835111 -122.682352 354 33945ft 514kts
26-Feb-19 17:51 44.978117 -122.668465 355 33949ft 515kts
26-Feb-19 17:52 45.120170 -122.654606 354 34009ft 515kts
26-Feb-19 17:54 45.261355 -122.640874 355 34018ft 511kts
26-Feb-19 17:55 45.402496 -122.626877 355 34021ft 507kts
26-Feb-19 17:56 45.542743 -122.612873 355 34037ft 504kts
26-Feb-19 17:57 45.682470 -122.598809 355 34053ft 504kts
26-Feb-19 17:58 45.819400 -122.603282 335 34077ft 475kts
26-Feb-19 17:59 45.948799 -122.642861 338 32175ft 486kts
26-Feb-19 18:00 46.082981 -122.677766 339 29430ft 494kts
26-Feb-19 18:01 46.216788 -122.711784 339 27112ft 489kts
26-Feb-19 18:02 46.349335 -122.745770 339 25186ft 475kts
26-Feb-19 18:03 46.474908 -122.778362 339 23780ft 450kts
26-Feb-19 18:04 46.595934 -122.806449 341 22382ft 428kts
26-Feb-19 18:05 46.710242 -122.835200 342 20999ft 408kts
26-Feb-19 18:06 46.819911 -122.862937 343 19613ft 391kts
26-Feb-19 18:07 46.924830 -122.889994 345 18228ft 375kts
26-Feb-19 18:08 47.025778 -122.889832 31 16839ft 367kts
26-Feb-19 18:09 47.071595 -122.766829 52 15508ft 348kts
26-Feb-19 18:10 47.148425 -122.707480 14 14212ft 337kts
26-Feb-19 18:11 47.237905 -122.675099 14 12941ft 326kts
26-Feb-19 18:12 47.324852 -122.646303 14 11944ft 305kts
26-Feb-19 18:13 47.403158 -122.622420 14 9590ft 285kts
26-Feb-19 18:14 47.480544 -122.600561 14 8561ft 274kts
26-Feb-19 18:14 47.535322 -122.560200 45 7620ft 260kts
26-Feb-19 18:15 47.588401 -122.488223 26 6430ft 262kts
26-Feb-19 18:17 47.670435 -122.458989 15 5325ft 254kts
26-Feb-19 18:17 47.701031 -122.396712 94 4243ft 248kts
26-Feb-19 18:18 47.678686 -122.309874 156 3460ft 240kts
26-Feb-19 18:19 47.623447 -122.307425 174 3071ft 216kts
26-Feb-19 18:21 47.565566 -122.307527 177 2350ft 149kts
26-Feb-19 18:21 47.535853 -122.307087 177 1750ft 132kts
26-Feb-19 18:22 47.501725 -122.307511 176 1233ft 131kts
26-Feb-19 18:23 47.469834 -122.307728 175 596ft 131kts
26-Feb-19 18:24 47.441868 -122.307868 181 445ft 38kts
26-Feb-19 18:25 47.439653 -122.306395 4 445ft 13kts
26-Feb-19 18:26 47.444196 -122.306303 359 445ft 24kts
26-Feb-19 18:27 47.450357 -122.306275 0 445ft 22kts
26-Feb-19 18:28 47.457310 -122.306204 0 445ft 27kts
26-Feb-19 18:29 47.461778 -122.305518 80 445ft 10kts
26-Feb-19 18:30 47.461946 -122.301749 20 445ft 5kts
26-Feb-19 18:31 47.462469 -122.301686 1 445ft 0kts
26-Feb-19 18:32 47.462469 -122.301686 1 445ft 0kts
26-Feb-19 18:33 47.462469 -122.301686 1 445ft 0kts
26-Feb-19 18:34 47.462469 -122.301686 1 445ft 0kts

Navigation Log

Ident Type
Flight plan parsing failed, navigation log unavailable